Time;durP1;ratioP1;P1;durP2;ratioP2;P2;SDS_P1;SDS_P2;PMS_P1;PMS_P2;Temp;Humidity;BMP_temperature;BMP_pressure;BME280_temperature;BME280_humidity;BME280_pressure;Samples;Min_cycle;Max_cycle;Signal;HPM_P1;HPM_P2
2023/05/19 00:00:30;;;;;;;;;;;10.40;99.90;;;;;;7409344;19;20015;-78
2023/05/19 00:02:59;;;;;;;;;;;10.90;99.90;;;;;;7412768;19;19915;-79
2023/05/19 00:05:29;;;;;;;0.22;0.20;;;10.70;99.90;;;;;;7425768;19;19910;-79
2023/05/19 00:08:01;;;;;;;0.00;0.00;;;10.70;99.90;;;;;;7421602;19;19970;-78
2023/05/19 00:10:31;;;;;;;0.00;0.00;;;10.70;99.90;;;;;;7408248;19;19925;-79
2023/05/19 00:13:04;;;;;;;0.00;0.00;;;10.80;99.90;;;;;;7405247;19;19945;-79
2023/05/19 00:15:34;;;;;;;0.00;0.00;;;10.70;99.90;;;;;;7404906;19;19923;-78
2023/05/19 00:18:03;;;;;;;0.00;0.00;;;10.70;99.90;;;;;;7403365;19;19922;-79
2023/05/19 00:20:32;;;;;;;0.00;0.00;;;10.50;99.90;;;;;;7402954;19;19935;-78
2023/05/19 00:23:01;;;;;;;0.10;0.10;;;10.70;99.90;;;;;;7406688;19;19923;-78
2023/05/19 00:25:30;;;;;;;0.00;0.00;;;10.50;99.90;;;;;;7407286;19;20002;-78
2023/05/19 00:27:59;;;;;;;0.00;0.00;;;10.60;99.90;;;;;;7406331;19;20372;-78
2023/05/19 00:30:31;;;;;;;0.00;0.00;;;10.50;99.90;;;;;;7405973;19;19986;-79
2023/05/19 00:33:00;;;;;;;0.10;0.10;;;10.40;99.90;;;;;;7405400;19;19934;-79
2023/05/19 00:35:29;;;;;;;0.00;0.00;;;10.50;99.90;;;;;;7405682;19;19922;-79
2023/05/19 00:37:58;;;;;;;0.00;0.00;;;10.60;99.90;;;;;;7404294;19;20233;-79
2023/05/19 00:40:28;;;;;;;0.00;0.00;;;10.40;99.90;;;;;;7406775;19;19982;-79
2023/05/19 00:42:57;;;;;;;0.00;0.00;;;10.40;99.90;;;;;;7404817;19;20355;-78
2023/05/19 00:45:26;;;;;;;0.03;0.03;;;10.40;99.90;;;;;;7405251;19;19982;-78
2023/05/19 00:47:58;;;;;;;0.00;0.00;;;10.40;99.90;;;;;;7404046;19;19928;-78
2023/05/19 00:50:28;;;;;;;0.10;0.10;;;10.50;99.90;;;;;;7405259;19;20592;-78
2023/05/19 00:52:57;;;;;;;0.00;0.00;;;10.40;99.90;;;;;;7405585;19;19923;-78
2023/05/19 00:55:29;;;;;;;0.00;0.00;;;10.50;99.90;;;;;;7405346;19;20323;-79
2023/05/19 00:57:59;;;;;;;0.00;0.00;;;10.40;99.90;;;;;;7405167;19;19927;-78
2023/05/19 01:00:29;;;;;;;0.00;0.00;;;10.40;99.90;;;;;;7403317;19;19922;-78
2023/05/19 01:03:00;;;;;;;0.43;0.43;;;10.40;99.90;;;;;;7405851;19;20422;-78
2023/05/19 01:05:30;;;;;;;0.00;0.00;;;10.40;99.90;;;;;;7405157;19;20338;-79
2023/05/19 01:07:59;;;;;;;0.10;0.10;;;10.40;99.90;;;;;;7404376;19;19994;-78
2023/05/19 01:10:28;;;;;;;0.00;0.00;;;10.30;99.90;;;;;;7404767;19;19923;-78
2023/05/19 01:12:57;;;;;;;0.00;0.00;;;10.30;99.90;;;;;;7404974;19;19923;-78
2023/05/19 01:15:28;;;;;;;1.08;1.00;;;10.20;99.90;;;;;;7405962;19;19974;-78
2023/05/19 01:18:09;;;;;;;0.00;0.00;;;10.30;99.90;;;;;;7404366;19;19974;-78
2023/05/19 01:20:45;;;;;;;2.40;2.00;;;10.10;99.90;;;;;;7404153;19;19914;-78
2023/05/19 01:23:35;;;;;;;0.57;0.57;;;10.20;99.90;;;;;;7403786;19;19937;-78
2023/05/19 01:26:27;;;;;;;0.00;0.00;;;10.10;99.90;;;;;;7403849;19;19925;-78
2023/05/19 01:29:35;;;;;;;0.00;0.00;;;10.00;99.90;;;;;;7405426;19;19926;-78
2023/05/19 01:32:09;;;;;;;0.00;0.00;;;10.10;99.90;;;;;;7404392;19;19919;-78
2023/05/19 01:34:43;;;;;;;6.32;3.53;;;10.10;99.90;;;;;;7403029;19;20264;-78
2023/05/19 01:37:14;;;;;;;0.00;0.00;;;10.00;99.90;;;;;;7405077;19;19942;-77
2023/05/19 01:39:45;;;;;;;0.00;0.00;;;10.10;99.90;;;;;;7403004;19;20404;-78
2023/05/19 01:42:16;;;;;;;0.00;0.00;;;9.90;99.90;;;;;;7403560;19;20329;-77
2023/05/19 01:44:45;;;;;;;0.08;0.08;;;10.00;99.90;;;;;;7403142;19;19914;-77
2023/05/19 01:47:17;;;;;;;0.10;0.10;;;10.00;99.90;;;;;;7404856;19;20574;-77
2023/05/19 01:49:46;;;;;;;0.00;0.00;;;10.00;99.90;;;;;;7403474;19;20283;-77
2023/05/19 01:52:15;;;;;;;0.40;0.40;;;9.90;99.90;;;;;;7402977;19;21122;-78
2023/05/19 01:54:44;;;;;;;0.00;0.00;;;9.90;99.90;;;;;;7402285;19;19926;-77
2023/05/19 01:57:21;;;;;;;0.00;0.00;;;9.80;99.90;;;;;;7405625;19;19992;-77
2023/05/19 01:59:57;;;;;;;0.10;0.10;;;9.90;99.90;;;;;;7413094;19;19947;-77
2023/05/19 02:02:38;;;;;;;0.00;0.00;;;9.70;99.90;;;;;;7427768;19;19918;-77
2023/05/19 02:05:15;;;;;;;0.00;0.00;;;9.70;99.90;;;;;;7405718;19;20451;-77
2023/05/19 02:07:48;;;;;;;0.00;0.00;;;9.80;99.90;;;;;;7402848;19;19966;-77
2023/05/19 02:10:23;;;;;;;0.17;0.17;;;9.80;99.90;;;;;;7400113;19;19929;-77
2023/05/19 02:12:55;;;;;;;0.10;0.10;;;9.70;99.90;;;;;;7402984;19;19927;-77
2023/05/19 02:15:28;;;;;;;0.10;0.10;;;9.60;99.90;;;;;;7402829;19;19926;-78
2023/05/19 02:18:03;;;;;;;0.00;0.00;;;9.70;99.90;;;;;;7402280;19;19923;-77
2023/05/19 02:20:32;;;;;;;0.43;0.30;;;9.70;99.90;;;;;;7401048;19;19923;-78
2023/05/19 02:23:01;;;;;;;0.00;0.00;;;9.50;99.90;;;;;;7403242;19;19943;-78
2023/05/19 02:25:30;;;;;;;0.00;0.00;;;9.50;99.90;;;;;;7402678;19;19926;-78
2023/05/19 02:28:00;;;;;;;0.00;0.00;;;9.50;99.90;;;;;;7403061;19;19930;-77
2023/05/19 02:30:30;;;;;;;0.00;0.00;;;9.60;99.90;;;;;;7403233;19;19937;-77
2023/05/19 02:33:02;;;;;;;0.50;0.10;;;9.50;99.90;;;;;;7402747;19;19928;-78
2023/05/19 02:35:31;;;;;;;0.00;0.00;;;9.60;99.90;;;;;;7402572;19;19991;-78
2023/05/19 02:37:59;;;;;;;0.00;0.00;;;9.50;99.90;;;;;;7410495;19;19963;-78
2023/05/19 02:40:28;;;;;;;0.00;0.00;;;9.40;99.90;;;;;;7411735;19;19919;-78
2023/05/19 02:42:57;;;;;;;0.00;0.00;;;9.20;99.90;;;;;;7407023;19;19915;-78
2023/05/19 02:45:27;;;;;;;0.00;0.00;;;9.30;99.90;;;;;;7404763;19;19947;-78
2023/05/19 02:47:56;;;;;;;0.10;0.10;;;9.30;99.90;;;;;;7402390;19;20307;-78
2023/05/19 02:50:28;;;;;;;0.00;0.00;;;9.20;99.90;;;;;;7403490;19;20021;-78
2023/05/19 02:52:57;;;;;;;0.00;0.00;;;9.20;99.90;;;;;;7402823;19;19985;-78
2023/05/19 02:55:25;;;;;;;0.00;0.00;;;9.20;99.90;;;;;;7401335;19;20354;-78
2023/05/19 02:57:54;;;;;;;1.35;0.85;;;9.20;99.90;;;;;;7401567;19;19939;-78
2023/05/19 03:00:24;;;;;;;0.00;0.00;;;9.00;99.90;;;;;;7401704;19;20371;-77
2023/05/19 03:02:54;;;;;;;0.63;0.63;;;9.10;99.90;;;;;;7401701;19;19921;-78
2023/05/19 03:05:23;;;;;;;0.00;0.00;;;9.20;99.90;;;;;;7402517;19;19918;-77
2023/05/19 03:07:54;;;;;;;0.00;0.00;;;9.20;99.90;;;;;;7401216;19;19947;-77
2023/05/19 03:10:23;;;;;;;2.17;0.52;;;9.00;99.90;;;;;;7400641;19;19990;-77
2023/05/19 03:12:52;;;;;;;0.00;0.00;;;9.10;99.90;;;;;;7400776;19;19945;-77
2023/05/19 03:15:22;;;;;;;0.00;0.00;;;9.10;99.90;;;;;;7399268;19;19960;-78
2023/05/19 03:17:51;;;;;;;0.00;0.00;;;8.90;99.90;;;;;;7400573;19;20248;-78
2023/05/19 03:20:20;;;;;;;0.03;0.03;;;8.90;99.90;;;;;;7399056;19;19919;-78
2023/05/19 03:22:49;;;;;;;0.08;0.08;;;8.90;99.90;;;;;;7405330;19;19929;-77
2023/05/19 03:25:21;;;;;;;0.32;0.32;;;8.90;99.90;;;;;;7405413;19;19914;-77
2023/05/19 03:27:49;;;;;;;0.00;0.00;;;9.00;99.90;;;;;;7407283;19;19946;-78
2023/05/19 03:30:19;;;;;;;0.00;0.00;;;8.80;99.90;;;;;;7406045;19;19974;-78
2023/05/19 03:32:48;;;;;;;0.00;0.00;;;8.70;99.90;;;;;;7406595;19;20391;-77
2023/05/19 03:35:17;;;;;;;0.00;0.00;;;8.80;99.90;;;;;;7404787;19;20346;-78
2023/05/19 03:37:45;;;;;;;0.00;0.00;;;8.90;99.90;;;;;;7407362;19;19939;-78
2023/05/19 03:40:17;;;;;;;0.00;0.00;;;8.90;99.90;;;;;;7404093;19;19921;-78
2023/05/19 03:42:49;;;;;;;0.00;0.00;;;8.70;99.90;;;;;;7406482;19;19921;-78
2023/05/19 03:45:18;;;;;;;0.38;0.38;;;8.70;99.90;;;;;;7408305;19;20279;-78
2023/05/19 03:47:47;;;;;;;0.00;0.00;;;8.70;99.90;;;;;;7407492;19;19923;-77
2023/05/19 03:50:17;;;;;;;0.00;0.00;;;8.70;99.90;;;;;;7406491;19;19931;-78
2023/05/19 03:52:47;;;;;;;0.00;0.00;;;8.80;99.90;;;;;;7408832;19;19939;-78
2023/05/19 03:55:19;;;;;;;0.00;0.00;;;8.50;99.90;;;;;;7406158;19;19985;-78
2023/05/19 03:57:51;;;;;;;0.00;0.00;;;8.60;99.90;;;;;;7414443;19;20229;-77
2023/05/19 04:00:20;;;;;;;0.75;0.75;;;8.60;99.90;;;;;;7428604;19;19917;-77
2023/05/19 04:02:50;;;;;;;0.57;0.57;;;8.70;99.90;;;;;;7427927;19;20245;-78
2023/05/19 04:05:19;;;;;;;0.00;0.00;;;8.70;99.90;;;;;;7407104;19;19919;-78
2023/05/19 04:07:48;;;;;;;0.00;0.00;;;8.60;99.90;;;;;;7406374;19;19929;-77
2023/05/19 04:10:17;;;;;;;0.00;0.00;;;8.70;99.90;;;;;;7406910;19;20332;-78
2023/05/19 04:12:46;;;;;;;0.00;0.00;;;8.60;99.90;;;;;;7407577;19;19918;-78
2023/05/19 04:15:18;;;;;;;0.00;0.00;;;8.70;99.90;;;;;;7404039;19;19919;-78
2023/05/19 04:17:47;;;;;;;0.00;0.00;;;8.50;99.90;;;;;;7405606;19;19922;-78
2023/05/19 04:20:16;;;;;;;0.00;0.00;;;8.40;99.90;;;;;;7404309;19;19914;-78
2023/05/19 04:22:45;;;;;;;0.03;0.03;;;8.60;99.90;;;;;;7405484;19;19923;-78
2023/05/19 04:25:14;;;;;;;0.80;0.55;;;8.60;99.90;;;;;;7405839;19;20146;-79
2023/05/19 04:27:43;;;;;;;0.15;0.15;;;8.70;99.90;;;;;;7404527;19;19986;-79
2023/05/19 04:30:16;;;;;;;0.00;0.00;;;8.40;99.90;;;;;;7406005;19;20301;-78
2023/05/19 04:32:48;;;;;;;0.38;0.15;;;8.40;99.90;;;;;;7405891;19;19918;-78
2023/05/19 04:35:17;;;;;;;0.00;0.00;;;8.60;99.90;;;;;;7402441;19;19968;-78
2023/05/19 04:37:47;;;;;;;0.63;0.43;;;8.40;99.90;;;;;;7406795;19;20245;-78
2023/05/19 04:40:16;;;;;;;0.00;0.00;;;8.60;99.90;;;;;;7405773;19;20345;-78
2023/05/19 04:42:45;;;;;;;0.00;0.00;;;8.50;99.90;;;;;;7406146;19;19907;-78
2023/05/19 04:45:15;;;;;;;0.40;0.32;;;8.70;99.90;;;;;;7404551;19;19943;-78
2023/05/19 04:47:46;;;;;;;0.00;0.00;;;8.60;99.90;;;;;;7405511;19;19978;-78
2023/05/19 04:50:16;;;;;;;0.00;0.00;;;8.50;99.90;;;;;;7404669;19;19942;-78
2023/05/19 04:52:45;;;;;;;1.90;0.15;;;8.50;99.90;;;;;;7404893;19;19922;-77
2023/05/19 04:55:14;;;;;;;0.00;0.00;;;8.70;99.90;;;;;;7404391;19;20396;-77
2023/05/19 04:57:43;;;;;;;0.00;0.00;;;8.70;99.90;;;;;;7405343;19;19986;-77
2023/05/19 05:00:14;;;;;;;1.35;0.55;;;8.70;99.90;;;;;;7403656;19;19926;-77
2023/05/19 05:02:43;;;;;;;0.00;0.00;;;8.60;99.90;;;;;;7404514;19;19939;-77
2023/05/19 05:05:15;;;;;;;0.00;0.00;;;8.50;99.90;;;;;;7404032;19;19935;-78
2023/05/19 05:07:44;;;;;;;;;;;8.60;99.90;;;;;;7406728;19;20261;-78
2023/05/19 05:10:13;;;;;;;0.00;0.00;;;8.60;99.90;;;;;;7406112;19;19938;-77
2023/05/19 05:12:43;;;;;;;0.00;0.00;;;8.70;99.90;;;;;;7405908;19;19915;-77
2023/05/19 05:15:14;;;;;;;0.00;0.00;;;8.70;99.90;;;;;;7404268;19;19926;-78
2023/05/19 05:17:43;;;;;;;0.22;0.22;;;8.70;99.90;;;;;;7405224;19;19939;-78
2023/05/19 05:20:18;;;;;;;0.00;0.00;;;8.70;99.90;;;;;;7404457;19;19932;-78
2023/05/19 05:22:48;;;;;;;0.00;0.00;;;8.70;99.90;;;;;;7401879;19;19927;-77
2023/05/19 05:25:18;;;;;;;0.10;0.10;;;8.80;99.90;;;;;;7405548;19;19918;-77
2023/05/19 05:27:47;;;;;;;0.00;0.00;;;8.90;99.90;;;;;;7404247;19;19922;-77
2023/05/19 05:30:16;;;;;;;0.00;0.00;;;8.80;99.90;;;;;;7403709;19;19977;-77
2023/05/19 05:32:46;;;;;;;0.00;0.00;;;8.90;99.90;;;;;;7404765;19;20472;-77
2023/05/19 05:35:17;;;;;;;0.15;0.15;;;9.00;99.90;;;;;;7402463;19;19982;-78
2023/05/19 05:37:46;;;;;;;;;;;8.90;99.90;;;;;;7406559;19;20321;-78
2023/05/19 05:40:15;;;;;;;0.20;0.20;;;9.10;99.90;;;;;;7405501;19;19919;-78
2023/05/19 05:42:45;;;;;;;0.00;0.00;;;9.10;99.90;;;;;;7404891;19;19918;-77
2023/05/19 05:45:14;;;;;;;0.00;0.00;;;9.30;99.90;;;;;;7401582;19;19935;-77
2023/05/19 05:47:44;;;;;;;0.00;0.00;;;9.20;99.90;;;;;;7404412;19;19923;-79
2023/05/19 05:50:14;;;;;;;0.05;0.05;;;9.30;99.90;;;;;;7404049;19;19999;-78
2023/05/19 05:52:48;;;;;;;0.00;0.00;;;9.30;99.90;;;;;;7405540;19;19931;-78
2023/05/19 05:55:19;;;;;;;0.00;0.00;;;9.30;99.90;;;;;;7406449;19;19986;-77
2023/05/19 05:57:49;;;;;;;0.00;0.00;;;9.20;99.90;;;;;;7412353;19;19918;-77
2023/05/19 06:00:21;;;;;;;0.70;0.45;;;9.30;99.90;;;;;;7416911;19;19973;-77
2023/05/19 06:02:52;;;;;;;0.00;0.00;;;9.50;99.90;;;;;;7411442;19;19945;-77
2023/05/19 06:05:22;;;;;;;0.00;0.00;;;9.50;99.90;;;;;;7405382;19;19951;-77
2023/05/19 06:07:53;;;;;;;0.00;0.00;;;9.50;99.90;;;;;;7402514;19;19914;-77
2023/05/19 06:10:23;;;;;;;0.00;0.00;;;9.70;99.90;;;;;;7404611;19;19930;-78
2023/05/19 06:12:52;;;;;;;0.00;0.00;;;9.70;99.90;;;;;;7402923;19;19918;-77
2023/05/19 06:15:21;;;;;;;0.00;0.00;;;9.70;99.90;;;;;;7402328;19;19929;-77
2023/05/19 06:17:54;;;;;;;0.00;0.00;;;9.80;99.90;;;;;;7401713;19;19926;-77
2023/05/19 06:20:24;;;;;;;0.00;0.00;;;9.70;99.90;;;;;;7401400;19;19926;-77
2023/05/19 06:22:55;;;;;;;0.00;0.00;;;9.90;99.90;;;;;;7402461;19;20627;-77
2023/05/19 06:25:34;;;;;;;0.20;0.20;;;10.00;99.90;;;;;;7402890;19;19926;-77
2023/05/19 06:28:03;;;;;;;0.00;0.00;;;10.10;99.90;;;;;;7402454;19;20345;-78
2023/05/19 06:30:33;;;;;;;0.00;0.00;;;10.10;99.90;;;;;;7402917;19;19926;-78
2023/05/19 06:33:02;;;;;;;0.00;0.00;;;10.10;99.90;;;;;;7401289;19;19944;-78
2023/05/19 06:35:31;;;;;;;0.00;0.00;;;10.10;99.90;;;;;;7401381;19;19926;-78
2023/05/19 06:38:02;;;;;;;0.00;0.00;;;10.20;99.90;;;;;;7403346;19;19921;-78
2023/05/19 06:40:35;;;;;;;0.08;0.08;;;10.10;99.90;;;;;;7403008;19;19926;-78
2023/05/19 06:43:04;;;;;;;14.15;0.98;;;10.30;99.90;;;;;;7403035;19;20273;-78
2023/05/19 06:45:34;;;;;;;0.00;0.00;;;10.20;99.90;;;;;;7401661;19;19919;-78
2023/05/19 06:48:07;;;;;;;0.00;0.00;;;10.40;99.90;;;;;;7401217;19;19918;-78
2023/05/19 06:50:36;;;;;;;0.00;0.00;;;10.50;99.90;;;;;;7402195;19;19971;-78
2023/05/19 06:53:08;;;;;;;0.00;0.00;;;10.60;99.90;;;;;;7402125;19;19933;-78
2023/05/19 06:55:37;;;;;;;0.00;0.00;;;10.60;99.90;;;;;;7400324;19;20006;-79
2023/05/19 06:58:18;;;;;;;0.00;0.00;;;10.70;99.90;;;;;;7406893;19;19930;-78
2023/05/19 07:00:47;;;;;;;0.00;0.00;;;10.60;99.90;;;;;;7408579;19;20308;-78
2023/05/19 07:03:16;;;;;;;0.00;0.00;;;10.70;99.90;;;;;;7408371;19;19922;-78
2023/05/19 07:05:46;;;;;;;0.00;0.00;;;10.70;99.90;;;;;;7406039;19;19930;-78
2023/05/19 07:08:17;;;;;;;0.15;0.08;;;10.80;99.90;;;;;;7408283;19;19935;-78
2023/05/19 07:10:46;;;;;;;0.00;0.00;;;10.80;99.90;;;;;;7408061;19;19930;-78
2023/05/19 07:13:18;;;;;;;;;;;10.90;99.90;;;;;;7409709;19;19948;-78
2023/05/19 07:15:47;;;;;;;0.00;0.00;;;10.90;99.90;;;;;;7406456;19;19923;-78
2023/05/19 07:18:16;;;;;;;0.00;0.00;;;10.90;99.90;;;;;;7405724;19;20375;-78
2023/05/19 07:20:45;;;;;;;0.00;0.00;;;11.00;99.90;;;;;;7404231;19;20007;-78
2023/05/19 07:23:17;;;;;;;0.00;0.00;;;11.00;99.90;;;;;;7409105;19;19918;-78
2023/05/19 07:25:46;;;;;;;0.10;0.10;;;11.00;99.90;;;;;;7408359;19;20009;-78
2023/05/19 07:28:15;;;;;;;0.00;0.00;;;11.00;99.90;;;;;;7408321;19;20352;-78
2023/05/19 07:30:44;;;;;;;0.00;0.00;;;11.20;99.90;;;;;;7407769;19;19932;-78
2023/05/19 07:33:13;;;;;;;0.00;0.00;;;11.10;99.90;;;;;;7406152;19;19978;-78
2023/05/19 07:35:43;;;;;;;0.00;0.00;;;11.20;99.90;;;;;;7405327;19;19978;-77
2023/05/19 07:38:12;;;;;;;0.00;0.00;;;11.30;99.90;;;;;;7406376;19;19918;-78
2023/05/19 07:40:43;;;;;;;0.00;0.00;;;11.40;99.90;;;;;;7406971;19;19918;-78
2023/05/19 07:43:13;;;;;;;0.00;0.00;;;11.50;99.90;;;;;;7407876;19;20388;-78
2023/05/19 07:45:42;;;;;;;0.00;0.00;;;11.50;99.90;;;;;;7407306;19;20073;-78
2023/05/19 07:48:12;;;;;;;0.00;0.00;;;11.50;99.90;;;;;;7407171;19;19926;-77
2023/05/19 07:50:41;;;;;;;0.38;0.38;;;11.60;99.90;;;;;;7415558;19;19928;-77
2023/05/19 07:53:10;;;;;;;0.00;0.00;;;11.50;99.90;;;;;;7416345;19;19918;-78
2023/05/19 07:55:39;;;;;;;0.00;0.00;;;11.50;99.90;;;;;;7406569;19;20341;-78
2023/05/19 07:58:11;;;;;;;0.00;0.00;;;11.60;99.90;;;;;;7404722;19;19927;-78
2023/05/19 08:00:41;;;;;;;0.00;0.00;;;11.80;99.90;;;;;;7404866;19;20490;-79
2023/05/19 08:03:10;;;;;;;0.00;0.00;;;11.90;99.90;;;;;;7407792;19;19970;-79
2023/05/19 08:05:40;;;;;;;0.00;0.00;;;11.70;99.90;;;;;;7406457;19;19953;-79
2023/05/19 08:08:10;;;;;;;0.00;0.00;;;11.80;99.90;;;;;;7404224;19;20255;-79
2023/05/19 08:10:39;;;;;;;0.00;0.00;;;11.90;99.90;;;;;;7405586;19;19938;-78
2023/05/19 08:13:11;;;;;;;0.00;0.00;;;12.00;99.90;;;;;;7405306;19;20281;-78
2023/05/19 08:15:40;;;;;;;;;;;11.90;99.90;;;;;;7407650;19;19930;-79
2023/05/19 08:18:09;;;;;;;0.00;0.00;;;11.90;99.90;;;;;;7405516;19;19988;-79
2023/05/19 08:20:38;;;;;;;0.00;0.00;;;12.00;99.90;;;;;;7405020;19;19918;-79
2023/05/19 08:23:07;;;;;;;0.17;0.17;;;12.00;99.90;;;;;;7406626;19;19922;-78
2023/05/19 08:25:36;;;;;;;0.00;0.00;;;12.10;99.90;;;;;;7406528;19;20420;-78
2023/05/19 08:28:05;;;;;;;0.00;0.00;;;12.10;99.90;;;;;;7406343;19;19943;-79
2023/05/19 08:30:37;;;;;;;0.00;0.00;;;12.20;99.90;;;;;;7407345;19;19922;-78
2023/05/19 08:33:07;;;;;;;0.00;0.00;;;12.30;99.90;;;;;;7407609;19;20449;-79
2023/05/19 08:35:36;;;;;;;0.00;0.00;;;12.30;99.90;;;;;;7405200;19;19939;-78
2023/05/19 08:38:05;;;;;;;0.00;0.00;;;12.30;99.90;;;;;;7406480;19;20256;-78
2023/05/19 08:40:36;;;;;;;0.00;0.00;;;11.00;99.90;;;;;;7406212;19;19970;-79
2023/05/19 08:43:05;;;;;;;0.32;0.32;;;12.40;99.90;;;;;;7407335;19;19915;-79
2023/05/19 08:45:37;;;;;;;0.00;0.00;;;12.50;99.90;;;;;;7405054;19;19943;-78
2023/05/19 08:48:07;;;;;;;0.10;0.10;;;12.60;99.90;;;;;;7401998;19;19910;-78
2023/05/19 08:50:41;;;;;;;0.32;0.17;;;12.50;99.90;;;;;;7406676;19;19943;-79
2023/05/19 08:53:15;;;;;;;0.00;0.00;;;12.50;99.90;;;;;;7406045;19;19923;-78
2023/05/19 08:55:52;;;;;;;0.00;0.00;;;12.60;99.90;;;;;;7407879;19;19974;-78
2023/05/19 08:58:22;;;;;;;0.00;0.00;;;12.80;99.90;;;;;;7406441;19;19926;-79
2023/05/19 09:00:55;;;;;;;0.00;0.00;;;15.00;99.90;;;;;;7406911;19;19930;-78
2023/05/19 09:03:25;;;;;;;0.00;0.00;;;12.90;99.90;;;;;;7406753;19;20018;-78
2023/05/19 09:05:54;;;;;;;0.00;0.00;;;12.90;99.90;;;;;;7406349;19;19943;-79
2023/05/19 09:08:24;;;;;;;0.00;0.00;;;12.90;99.90;;;;;;7407856;19;19918;-78
2023/05/19 09:10:53;;;;;;;0.00;0.00;;;13.00;99.90;;;;;;7409560;19;19982;-79
2023/05/19 09:13:22;;;;;;;0.00;0.00;;;13.10;99.90;;;;;;7409541;19;19915;-78
2023/05/19 09:15:55;;;;;;;0.00;0.00;;;13.00;99.90;;;;;;7405262;19;19986;-78
2023/05/19 09:18:25;;;;;;;0.00;0.00;;;13.10;99.90;;;;;;7402004;19;19990;-78
2023/05/19 09:21:01;;;;;;;0.00;0.00;;;13.30;99.90;;;;;;7402571;19;19950;-78
2023/05/19 09:23:32;;;;;;;0.00;0.00;;;13.50;99.90;;;;;;7404719;19;19918;-79
2023/05/19 09:26:05;;;;;;;0.00;0.00;;;13.40;99.90;;;;;;7406409;19;19939;-79
2023/05/19 09:28:37;;;;;;;0.00;0.00;;;13.40;99.90;;;;;;7409595;19;19943;-79
2023/05/19 09:31:10;;;;;;;0.15;0.15;;;13.50;99.90;;;;;;7418626;19;19918;-78
2023/05/19 09:33:41;;;;;;;0.00;0.00;;;13.60;99.90;;;;;;7423355;19;19938;-78
2023/05/19 09:36:10;;;;;;;0.00;0.00;;;13.60;99.90;;;;;;7406107;19;19919;-79
2023/05/19 09:38:40;;;;;;;0.00;0.00;;;13.80;99.90;;;;;;7405565;19;20031;-79
2023/05/19 09:41:10;;;;;;;0.00;0.00;;;13.90;99.90;;;;;;7408004;19;19919;-78
2023/05/19 09:43:39;;;;;;;0.38;0.10;;;14.00;99.90;;;;;;7408413;19;19935;-79
2023/05/19 09:46:12;;;;;;;0.00;0.00;;;14.20;99.90;;;;;;7405338;19;19924;-78
2023/05/19 09:48:41;;;;;;;0.00;0.00;;;14.20;99.90;;;;;;7404178;19;19922;-78
2023/05/19 09:51:12;;;;;;;0.00;0.00;;;14.20;99.90;;;;;;7403963;19;19919;-79
2023/05/19 09:53:41;;;;;;;0.10;0.10;;;14.60;99.90;;;;;;7403419;19;19918;-79
2023/05/19 09:56:11;;;;;;;0.00;0.00;;;14.80;99.90;;;;;;7401324;19;19914;-79
2023/05/19 09:58:44;;;;;;;0.05;0.05;;;14.60;99.90;;;;;;7401802;19;19923;-79
2023/05/19 10:01:15;;;;;;;0.22;0.22;;;14.50;99.90;;;;;;7402263;19;19982;-79
2023/05/19 10:03:45;;;;;;;;;;;14.70;99.90;;;;;;7406650;19;20307;-79
2023/05/19 10:06:15;;;;;;;0.00;0.00;;;14.70;99.90;;;;;;7402770;19;19989;-79
2023/05/19 10:08:46;;;;;;;0.00;0.00;;;14.80;99.90;;;;;;7402699;19;19922;-79
2023/05/19 10:11:17;;;;;;;0.00;0.00;;;14.90;99.90;;;;;;7401832;19;19926;-79
2023/05/19 10:13:48;;;;;;;0.00;0.00;;;15.10;99.90;;;;;;7401544;19;19956;-79
2023/05/19 10:16:22;;;;;;;0.13;0.13;;;15.20;99.90;;;;;;7402573;19;19998;-79
2023/05/19 10:18:54;;;;;;;0.05;0.05;;;15.30;99.90;;;;;;7400657;19;20249;-79
2023/05/19 10:21:24;;;;;;;0.00;0.00;;;15.30;99.90;;;;;;7402492;19;20423;-78
2023/05/19 10:23:53;;;;;;;0.00;0.00;;;15.40;99.90;;;;;;7401428;19;19939;-79
2023/05/19 10:26:23;;;;;;;4.90;0.17;;;15.40;99.90;;;;;;7402671;19;19919;-78
2023/05/19 10:28:53;;;;;;;0.00;0.00;;;15.60;99.90;;;;;;7402421;19;20395;-79
2023/05/19 10:31:26;;;;;;;0.00;0.00;;;15.70;99.90;;;;;;7400042;19;19921;-79
2023/05/19 10:34:09;;;;;;;0.00;0.00;;;15.90;99.90;;;;;;7403188;19;19982;-79
2023/05/19 10:36:55;;;;;;;;;;;16.10;99.90;;;;;;7404160;19;19989;-79
2023/05/19 10:39:26;;;;;;;;;;;16.10;99.90;;;;;;7405214;19;19918;-79
2023/05/19 10:42:05;;;;;;;0.00;0.00;;;16.20;99.90;;;;;;7402386;19;21014;-79
2023/05/19 10:44:52;;;;;;;0.00;0.00;;;16.20;99.90;;;;;;7402613;19;19919;-79
2023/05/19 10:47:27;;;;;;;0.00;0.00;;;18.10;99.90;;;;;;7401908;19;19951;-79
2023/05/19 10:49:56;;;;;;;0.00;0.00;;;16.30;99.90;;;;;;7402450;19;19944;-79
2023/05/19 10:52:28;;;;;;;0.00;0.00;;;14.90;99.90;;;;;;7402959;19;19914;-79
2023/05/19 10:54:58;;;;;;;0.10;0.10;;;16.50;99.90;;;;;;7399470;19;20446;-79
2023/05/19 10:57:31;;;;;;;0.20;0.20;;;16.50;99.90;;;;;;7400277;19;20368;-80
2023/05/19 11:00:00;;;;;;;0.00;0.00;;;16.80;99.90;;;;;;7401179;19;19926;-79
2023/05/19 11:02:55;;;;;;;0.15;0.15;;;16.90;99.90;;;;;;7401735;19;20408;-79
2023/05/19 11:05:31;;;;;;;0.00;0.00;;;16.80;99.90;;;;;;7400222;19;19922;-79
2023/05/19 11:08:02;;;;;;;0.00;0.00;;;17.00;99.90;;;;;;7403904;19;20762;-79
2023/05/19 11:10:33;;;;;;;0.00;0.00;;;17.20;99.90;;;;;;7411916;19;19927;-78
2023/05/19 11:13:02;;;;;;;0.00;0.00;;;17.20;99.90;;;;;;7416923;19;19918;-79
2023/05/19 11:15:35;;;;;;;0.15;0.15;;;17.40;99.90;;;;;;7403841;19;20273;-78
2023/05/19 11:18:07;;;;;;;0.00;0.00;;;17.40;99.90;;;;;;7396590;19;20543;-78
2023/05/19 11:20:41;;;;;;;0.00;0.00;;;17.40;99.90;;;;;;7399547;19;19956;-79
2023/05/19 11:23:11;;;;;;;0.10;0.00;;;17.50;99.90;;;;;;7401118;19;19935;-78
2023/05/19 11:25:45;;;;;;;0.00;0.00;;;17.60;99.90;;;;;;7401096;19;19974;-78
2023/05/19 11:28:18;;;;;;;0.00;0.00;;;17.60;99.90;;;;;;7399748;19;19919;-79
2023/05/19 11:30:49;;;;;;;0.40;0.17;;;17.70;99.90;;;;;;7400062;19;19918;-79
2023/05/19 11:33:25;;;;;;;0.00;0.00;;;17.60;99.90;;;;;;7400538;19;19915;-79
2023/05/19 11:35:56;;;;;;;0.00;0.00;;;17.70;99.90;;;;;;7399938;19;19927;-79
2023/05/19 11:38:26;;;;;;;4.38;0.20;;;17.80;99.90;;;;;;7397210;19;20311;-79
2023/05/19 11:40:56;;;;;;;0.00;0.00;;;17.70;99.90;;;;;;7399713;19;19919;-80
2023/05/19 11:43:26;;;;;;;0.00;0.00;;;17.80;99.90;;;;;;7402817;19;19918;-79
2023/05/19 11:45:56;;;;;;;0.00;0.00;;;17.70;99.90;;;;;;7407485;19;19943;-79
2023/05/19 11:48:28;;;;;;;0.00;0.00;;;17.90;99.90;;;;;;7406557;19;19982;-80
2023/05/19 11:50:57;;;;;;;0.00;0.00;;;18.20;99.90;;;;;;7407172;19;19922;-79
2023/05/19 11:53:30;;;;;;;0.00;0.00;;;18.40;99.90;;;;;;7406240;19;19915;-79
2023/05/19 11:56:05;;;;;;;0.00;0.00;;;18.50;99.90;;;;;;7405133;19;19926;-80
2023/05/19 11:58:34;;;;;;;0.00;0.00;;;18.70;99.90;;;;;;7407917;19;19986;-80
2023/05/19 12:01:06;;;;;;;0.00;0.00;;;19.00;99.90;;;;;;7407718;19;19918;-80
2023/05/19 12:03:37;;;;;;;0.00;0.00;;;19.00;99.90;;;;;;7408428;19;19956;-80
2023/05/19 12:06:08;;;;;;;0.00;0.00;;;19.10;99.90;;;;;;7407515;19;19914;-80
2023/05/19 12:08:38;;;;;;;0.00;0.00;;;19.00;99.90;;;;;;7408001;19;19992;-80
2023/05/19 12:11:08;;;;;;;0.00;0.00;;;18.90;99.90;;;;;;7406432;19;19945;-79
2023/05/19 12:13:38;;;;;;;0.68;0.68;;;19.00;99.90;;;;;;7407232;19;19910;-80
2023/05/19 12:16:08;;;;;;;0.20;0.15;;;19.10;99.90;;;;;;7410032;19;19929;-80
2023/05/19 12:18:41;;;;;;;0.22;0.22;;;19.20;99.90;;;;;;7409847;19;19919;-79
2023/05/19 12:21:11;;;;;;;0.00;0.00;;;19.50;99.90;;;;;;7405062;19;19947;-79
2023/05/19 12:23:40;;;;;;;0.00;0.00;;;19.60;99.90;;;;;;7406168;19;19919;-79
2023/05/19 12:26:09;;;;;;;0.15;0.15;;;19.90;99.90;;;;;;7405761;19;20341;-80
2023/05/19 12:28:39;;;;;;;0.05;0.05;;;20.10;99.90;;;;;;7405086;19;20317;-80
2023/05/19 12:31:08;;;;;;;0.00;0.00;;;20.20;99.90;;;;;;7405094;19;19966;-79
2023/05/19 12:33:37;;;;;;;0.00;0.00;;;20.40;99.90;;;;;;7406031;19;19947;-79
2023/05/19 12:36:12;;;;;;;0.00;0.00;;;20.30;99.90;;;;;;7405104;19;19965;-80
2023/05/19 12:38:41;;;;;;;0.00;0.00;;;20.20;99.90;;;;;;7403219;19;20348;-80
2023/05/19 12:41:13;;;;;;;0.57;0.57;;;20.10;99.90;;;;;;7405976;19;19971;-80
2023/05/19 12:43:42;;;;;;;0.10;0.00;;;20.30;99.90;;;;;;7406165;19;19964;-80
2023/05/19 12:46:12;;;;;;;0.00;0.00;;;20.40;99.90;;;;;;7406391;19;19943;-81
2023/05/19 12:48:46;;;;;;;0.00;0.00;;;20.40;99.90;;;;;;7405895;19;19935;-79
2023/05/19 12:51:21;;;;;;;0.00;0.00;;;20.70;99.90;;;;;;7408165;19;20037;-81
2023/05/19 12:53:52;;;;;;;0.00;0.00;;;20.60;99.90;;;;;;7410389;19;19994;-80
2023/05/19 12:56:23;;;;;;;0.00;0.00;;;19.70;99.90;;;;;;7415551;19;19942;-80
2023/05/19 12:58:57;;;;;;;0.00;0.00;;;21.00;99.80;;;;;;7407907;19;19917;-80
2023/05/19 13:01:25;;;;;;;0.00;0.00;;;21.00;99.30;;;;;;7405292;19;19939;-81
2023/05/19 13:03:55;;;;;;;0.00;0.00;;;21.20;99.20;;;;;;7405124;19;19922;-80
2023/05/19 13:06:26;;;;;;;0.00;0.00;;;21.20;98.70;;;;;;7406528;19;19926;-81
2023/05/19 13:08:55;;;;;;;0.00;0.00;;;21.10;98.60;;;;;;7408115;19;19926;-81
2023/05/19 13:11:25;;;;;;;0.00;0.00;;;20.90;99.20;;;;;;7409515;19;19922;-81